Time;durP1;ratioP1;P1;durP2;ratioP2;P2;SDS_P1;SDS_P2;PMS_P1;PMS_P2;Temp;Humidity;BMP_temperature;BMP_pressure;BME280_temperature;BME280_humidity;BME280_pressure;Samples;Min_cycle;Max_cycle;Signal;HPM_P1;HPM_P2
2023/07/05 00:03:07;;;;;;;3.80;2.37;;;;;;;15.17;88.20;101039.56;6233926;28;20231;-70
2023/07/05 00:06:28;;;;;;;2.33;1.70;;;;;;;15.05;88.39;101039.00;6258952;28;20250;-70
2023/07/05 00:09:49;;;;;;;1.57;1.47;;;;;;;14.99;88.57;101044.22;6251477;28;20231;-70
2023/07/05 00:13:10;;;;;;;3.87;1.47;;;;;;;15.09;88.11;101037.66;6252747;28;20236;-70
2023/07/05 00:16:32;;;;;;;3.17;2.20;;;;;;;15.17;88.17;101031.41;6250101;28;20260;-69
2023/07/05 00:19:54;;;;;;;2.10;1.90;;;;;;;15.16;87.90;101033.28;6257482;28;20223;-70
2023/07/05 00:23:15;;;;;;;2.83;1.67;;;;;;;15.09;88.09;101032.25;6250736;28;20220;-69
2023/07/05 00:26:36;;;;;;;3.23;2.13;;;;;;;15.25;88.18;101034.16;6254270;28;20232;-68
2023/07/05 00:29:57;;;;;;;1.77;1.67;;;;;;;15.05;87.77;101020.00;6254808;28;20255;-69
2023/07/05 00:33:19;;;;;;;1.90;1.80;;;;;;;15.04;87.74;101018.28;6219460;28;20224;-68
2023/07/05 00:36:40;;;;;;;3.63;1.83;;;;;;;14.85;87.80;101021.22;6256927;28;20228;-70
2023/07/05 00:40:01;;;;;;;1.97;1.60;;;;;;;14.91;87.50;101022.47;6254348;28;20234;-70
2023/07/05 00:43:21;;;;;;;1.87;1.77;;;;;;;14.93;87.24;101015.00;6257155;28;20315;-69
2023/07/05 00:46:46;;;;;;;3.33;2.03;;;;;;;14.97;86.91;101010.97;6250049;28;20232;-69
2023/07/05 00:50:17;;;;;;;2.30;2.10;;;;;;;14.79;87.08;101013.72;6244095;28;20235;-70
2023/07/05 00:53:38;;;;;;;2.53;1.73;;;;;;;14.76;86.78;101008.63;6260574;28;20235;-69
2023/07/05 00:57:04;;;;;;;3.97;2.27;;;;;;;14.84;86.83;101010.53;6238697;28;20232;-69
2023/07/05 01:00:25;;;;;;;5.60;2.33;;;;;;;15.06;86.67;101010.00;6253549;28;20238;-69
2023/07/05 01:03:51;;;;;;;2.73;2.30;;;;;;;14.80;86.13;101009.16;6245606;28;20753;-70
2023/07/05 01:07:14;;;;;;;7.37;2.07;;;;;;;15.10;86.06;100992.38;6227244;28;20227;-70
2023/07/05 01:10:36;;;;;;;2.23;1.77;;;;;;;15.28;85.63;100993.13;6242018;28;20322;-70
2023/07/05 01:14:02;;;;;;;3.47;2.80;;;;;;;15.26;85.22;100987.00;6254712;28;20224;-70
2023/07/05 01:17:32;;;;;;;2.53;2.10;;;;;;;15.39;85.23;100972.97;6250882;28;20220;-69
2023/07/05 01:20:59;;;;;;;4.27;3.40;;;;;;;15.37;85.00;100964.97;6251158;28;20597;-69
2023/07/05 01:24:54;;;;;;;3.77;2.67;;;;;;;15.36;84.75;100960.53;6252030;28;20616;-70
2023/07/05 01:28:37;;;;;;;2.73;1.90;;;;;;;15.40;84.74;100963.78;6238341;28;20596;-69
2023/07/05 01:32:07;;;;;;;5.80;3.07;;;;;;;15.20;85.17;100960.50;6243613;28;20648;-70
2023/07/05 01:35:32;;;;;;;3.57;2.60;;;;;;;15.25;85.37;100949.97;6229330;28;20621;-71
2023/07/05 01:38:53;;;;;;;3.47;2.83;;;;;;;15.21;85.81;100956.75;6253972;28;20224;-70
2023/07/05 01:42:13;;;;;;;8.87;3.00;;;;;;;14.97;86.00;100957.53;6226057;28;20228;-70
2023/07/05 01:45:44;;;;;;;3.13;2.50;;;;;;;15.14;86.35;100953.00;6257298;28;20277;-69
2023/07/05 01:49:20;;;;;;;4.83;2.67;;;;;;;15.23;86.58;100945.75;6255860;28;20243;-69
2023/07/05 01:52:46;;;;;;;4.97;3.70;;;;;;;15.25;86.81;100938.28;6231140;28;20235;-69
2023/07/05 01:56:12;;;;;;;4.30;2.97;;;;;;;15.13;86.80;100929.56;6249508;28;20806;-69
2023/07/05 01:59:41;;;;;;;3.57;2.97;;;;;;;15.07;87.15;100916.66;6235380;28;20243;-70
2023/07/05 02:03:05;;;;;;;7.17;3.23;;;;;;;15.26;87.33;100910.09;6261451;28;20235;-69
2023/07/05 02:06:29;;;;;;;4.30;3.33;;;;;;;15.22;87.69;100896.00;6262847;28;20573;-69
2023/07/05 02:09:49;;;;;;;5.30;3.43;;;;;;;15.25;87.73;100890.22;6237847;28;20228;-69
2023/07/05 02:13:12;;;;;;;6.57;3.63;;;;;;;15.30;87.49;100882.44;6251308;28;20234;-70
2023/07/05 02:16:33;;;;;;;5.50;3.90;;;;;;;15.42;87.17;100875.66;6250056;28;20231;-69
2023/07/05 02:19:54;;;;;;;4.23;3.43;;;;;;;15.40;87.00;100860.53;6251356;28;20235;-70
2023/07/05 02:23:16;;;;;;;3.57;3.27;;;;;;;15.31;87.32;100858.84;6247664;28;20492;-69
2023/07/05 02:26:37;;;;;;;4.40;3.30;;;;;;;15.30;87.16;100849.84;6234411;28;23143;-69
2023/07/05 02:29:58;;;;;;;4.63;3.03;;;;;;;15.18;87.71;100856.59;6250501;28;20231;-69
2023/07/05 02:33:19;;;;;;;4.90;3.97;;;;;;;15.29;87.60;100859.00;6253927;28;20231;-69
2023/07/05 02:36:40;;;;;;;3.83;3.50;;;;;;;15.45;87.60;100844.63;6254662;28;20531;-69
2023/07/05 02:40:04;;;;;;;3.47;3.17;;;;;;;15.57;87.20;100810.66;6255900;28;20322;-69
2023/07/05 02:43:25;;;;;;;4.70;2.60;;;;;;;15.67;86.71;100801.31;6263539;28;20573;-69
2023/07/05 02:46:46;;;;;;;6.70;3.37;;;;;;;15.67;86.57;100789.59;6251572;28;20499;-69
2023/07/05 02:50:08;;;;;;;5.40;3.87;;;;;;;15.74;86.16;100775.16;6257767;28;20239;-70
2023/07/05 02:53:29;;;;;;;6.50;4.20;;;;;;;15.82;85.95;100766.13;6247026;28;20223;-69
2023/07/05 02:56:51;;;;;;;4.03;3.63;;;;;;;15.88;85.50;100749.13;6256700;28;20219;-69
2023/07/05 03:00:13;;;;;;;3.13;2.77;;;;;;;15.86;85.01;100740.28;6233655;28;20351;-69
2023/07/05 03:03:35;;;;;;;3.00;2.67;;;;;;;15.79;85.30;100723.81;6254595;28;20231;-70
2023/07/05 03:06:56;;;;;;;5.13;4.40;;;;;;;15.86;85.06;100718.56;6250344;28;20260;-70
2023/07/05 03:10:17;;;;;;;3.13;2.80;;;;;;;15.85;84.95;100687.78;6226974;28;20346;-69
2023/07/05 03:13:40;;;;;;;4.67;2.67;;;;;;;15.87;85.01;100669.44;6237196;28;20255;-69
2023/07/05 03:17:01;;;;;;;14.73;3.63;;;;;;;15.84;84.48;100661.63;6254640;28;20278;-70
2023/07/05 03:20:22;;;;;;;9.17;3.33;;;;;;;15.76;84.83;100658.94;6262094;28;20569;-70
2023/07/05 03:23:43;;;;;;;3.33;2.93;;;;;;;15.85;85.00;100657.06;6259930;28;20239;-69
2023/07/05 03:27:04;;;;;;;3.67;3.37;;;;;;;15.85;84.38;100660.59;6255187;28;20255;-69
2023/07/05 03:30:27;;;;;;;4.10;2.67;;;;;;;15.89;84.72;100655.69;6242465;28;20546;-69
2023/07/05 03:33:48;;;;;;;3.33;2.97;;;;;;;15.79;84.26;100661.31;6259759;28;20236;-69
2023/07/05 03:37:08;;;;;;;3.47;2.90;;;;;;;15.92;83.71;100650.72;6258274;28;20500;-70
2023/07/05 03:40:29;;;;;;;3.20;2.83;;;;;;;16.02;83.39;100657.84;6237094;28;21664;-70
2023/07/05 03:43:55;;;;;;;3.67;2.90;;;;;;;15.98;83.11;100652.75;6249434;28;20236;-69
2023/07/05 03:47:18;;;;;;;5.50;2.47;;;;;;;16.12;82.87;100658.47;6252474;28;20228;-69
2023/07/05 03:50:39;;;;;;;3.83;2.93;;;;;;;16.04;82.59;100651.22;6262998;28;20236;-69
2023/07/05 03:54:00;;;;;;;4.80;3.33;;;;;;;16.02;82.82;100636.91;6256235;28;20228;-69
2023/07/05 03:57:20;;;;;;;5.53;3.27;;;;;;;15.97;82.98;100628.44;6257283;28;20236;-70
2023/07/05 04:00:42;;;;;;;4.37;3.07;;;;;;;16.08;82.95;100633.50;6252032;28;20236;-69
2023/07/05 04:04:04;;;;;;;4.40;2.90;;;;;;;15.93;82.70;100644.28;6261946;28;20227;-68
2023/07/05 04:07:26;;;;;;;4.17;3.67;;;;;;;15.92;83.44;100641.72;6255941;28;20239;-68
2023/07/05 04:10:47;;;;;;;4.03;3.17;;;;;;;15.83;84.48;100646.34;6241982;28;20600;-69
2023/07/05 04:14:08;;;;;;;10.27;3.93;;;;;;;15.72;85.04;100626.84;6256171;28;20227;-70
2023/07/05 04:17:30;;;;;;;9.17;3.63;;;;;;;15.73;85.79;100618.50;6248109;28;20590;-69
2023/07/05 04:20:52;;;;;;;3.80;3.27;;;;;;;15.77;86.82;100627.19;6251992;28;20559;-69
2023/07/05 04:24:13;;;;;;;4.37;3.90;;;;;;;15.68;87.49;100615.50;6256910;28;20505;-70
2023/07/05 04:27:34;;;;;;;6.23;4.00;;;;;;;15.71;87.75;100600.69;6246864;28;20655;-69
2023/07/05 04:30:55;;;;;;;6.30;3.70;;;;;;;15.66;88.38;100609.38;6251241;28;20401;-71
2023/07/05 04:34:16;;;;;;;5.27;3.27;;;;;;;15.49;88.78;100602.31;6254793;28;20236;-69
2023/07/05 04:37:38;;;;;;;7.60;4.50;;;;;;;15.48;89.58;100605.22;6252377;28;20845;-69
2023/07/05 04:41:00;;;;;;;4.30;3.80;;;;;;;15.52;90.12;100598.41;6257512;28;20227;-69
2023/07/05 04:44:21;;;;;;;7.30;3.80;;;;;;;15.48;90.91;100594.34;6254794;28;20227;-69
2023/07/05 04:47:41;;;;;;;9.57;4.47;;;;;;;15.32;91.07;100594.31;6251457;28;20232;-69
2023/07/05 04:51:02;;;;;;;4.03;3.17;;;;;;;15.36;91.52;100588.38;6254209;28;20259;-70
2023/07/05 04:54:24;;;;;;;4.67;4.00;;;;;;;15.40;92.40;100586.16;6253573;28;20522;-69
2023/07/05 04:57:45;;;;;;;5.57;4.27;;;;;;;15.45;92.47;100559.34;6254045;28;20223;-69
2023/07/05 05:01:07;;;;;;;4.23;3.83;;;;;;;15.42;92.62;100562.38;6247316;28;20239;-70
2023/07/05 05:04:28;;;;;;;6.87;3.93;;;;;;;15.55;92.57;100562.72;6251242;28;20243;-71
2023/07/05 05:07:49;;;;;;;5.33;4.83;;;;;;;15.41;92.88;100563.41;6257062;28;20664;-69
2023/07/05 05:11:11;;;;;;;3.90;3.30;;;;;;;15.56;93.16;100554.38;6253302;28;20244;-70
2023/07/05 05:14:33;;;;;;;7.13;4.87;;;;;;;15.35;93.43;100554.09;6251160;28;20587;-69
2023/07/05 05:17:54;;;;;;;6.13;4.63;;;;;;;15.33;93.86;100539.00;6247022;28;20239;-69
2023/07/05 05:21:15;;;;;;;5.93;4.60;;;;;;;15.17;93.65;100551.59;6245368;28;20494;-69
2023/07/05 05:24:36;;;;;;;6.47;5.00;;;;;;;14.96;94.49;100534.16;6246151;28;20232;-68
2023/07/05 05:27:58;;;;;;;8.47;4.77;;;;;;;15.07;95.42;100517.50;6250478;28;20715;-70
2023/07/05 05:31:19;;;;;;;6.03;4.20;;;;;;;14.95;96.19;100517.03;6247455;28;20236;-70
2023/07/05 05:34:40;;;;;;;9.60;5.53;;;;;;;15.03;96.34;100519.75;6254043;28;20268;-69
2023/07/05 05:38:02;;;;;;;7.90;4.83;;;;;;;15.06;96.62;100516.66;6251980;28;20263;-69
2023/07/05 05:41:23;;;;;;;7.87;4.00;;;;;;;15.14;96.88;100516.63;6251676;28;20224;-68
2023/07/05 05:44:45;;;;;;;6.17;3.90;;;;;;;15.33;97.20;100509.13;6242464;28;20224;-68
2023/07/05 05:48:06;;;;;;;6.87;5.00;;;;;;;15.34;97.03;100499.94;6252586;28;20243;-69
2023/07/05 05:51:27;;;;;;;8.03;4.47;;;;;;;15.10;97.26;100487.31;6257974;28;20227;-69
2023/07/05 05:54:48;;;;;;;7.10;4.70;;;;;;;15.13;97.22;100485.09;6256254;28;20224;-69
2023/07/05 05:58:09;;;;;;;6.73;5.13;;;;;;;15.09;97.42;100477.47;6250489;28;21211;-70
2023/07/05 06:01:32;;;;;;;7.40;4.67;;;;;;;14.88;97.75;100477.19;6249332;28;20228;-68
2023/07/05 06:04:53;;;;;;;5.30;4.80;;;;;;;15.05;97.78;100462.53;6251037;28;20239;-70
2023/07/05 06:08:13;;;;;;;5.63;5.07;;;;;;;14.94;98.33;100469.19;6246147;28;20236;-70
2023/07/05 06:11:34;;;;;;;6.23;5.53;;;;;;;15.00;98.78;100451.34;6254770;28;20231;-68
2023/07/05 06:14:55;;;;;;;6.80;5.50;;;;;;;14.77;99.29;100453.97;6244984;28;20235;-68
2023/07/05 06:18:17;;;;;;;6.27;5.53;;;;;;;14.87;99.19;100445.63;6250701;28;20661;-68
2023/07/05 06:21:38;;;;;;;8.27;5.57;;;;;;;14.91;100.00;100446.97;6256296;28;20239;-67
2023/07/05 06:24:59;;;;;;;5.63;5.03;;;;;;;14.87;99.84;100443.75;6248467;28;21292;-67
2023/07/05 06:28:20;;;;;;;10.20;5.17;;;;;;;14.81;100.00;100421.91;6237700;28;20227;-68
2023/07/05 06:31:41;;;;;;;5.13;4.50;;;;;;;15.17;100.00;100433.97;6256454;28;20236;-69
2023/07/05 06:35:03;;;;;;;13.10;4.90;;;;;;;15.16;100.00;100435.84;6256971;28;20334;-68
2023/07/05 06:38:23;;;;;;;6.03;5.43;;;;;;;15.04;100.00;100431.81;6259058;28;20219;-69
2023/07/05 06:41:44;;;;;;;7.30;6.37;;;;;;;14.99;100.00;100441.53;6259655;28;20265;-68
2023/07/05 06:45:08;;;;;;;6.10;5.37;;;;;;;14.84;100.00;100435.13;6259989;28;20239;-68
2023/07/05 06:48:28;;;;;;;6.70;5.97;;;;;;;14.94;100.00;100446.63;6256200;28;20225;-68
2023/07/05 06:51:50;;;;;;;8.30;5.60;;;;;;;15.02;100.00;100438.44;6260531;28;20645;-69
2023/07/05 06:55:14;;;;;;;5.87;5.33;;;;;;;15.05;100.00;100441.69;6256432;28;20597;-68
2023/07/05 06:58:35;;;;;;;7.17;6.50;;;;;;;14.94;100.00;100442.03;6250618;28;20231;-68
2023/07/05 07:01:56;;;;;;;5.43;4.90;;;;;;;14.80;100.00;100431.06;6251388;28;20338;-68
2023/07/05 07:05:17;;;;;;;9.60;6.47;;;;;;;14.99;100.00;100426.09;6262663;28;20792;-68
2023/07/05 07:08:40;;;;;;;6.07;5.40;;;;;;;14.89;100.00;100422.75;6265251;28;20231;-67
2023/07/05 07:12:01;;;;;;;5.90;4.53;;;;;;;14.84;100.00;100414.25;6252172;28;20613;-68
2023/07/05 07:15:22;;;;;;;7.10;5.87;;;;;;;14.82;100.00;100404.59;6261937;28;20318;-69
2023/07/05 07:18:46;;;;;;;6.83;5.23;;;;;;;14.91;100.00;100401.69;6256392;28;20244;-68
2023/07/05 07:22:06;;;;;;;11.83;6.90;;;;;;;15.02;100.00;100392.28;6257340;28;20231;-68
2023/07/05 07:25:29;;;;;;;5.80;5.00;;;;;;;15.11;100.00;100388.53;6259223;28;20227;-68
2023/07/05 07:28:53;;;;;;;5.87;5.23;;;;;;;15.01;100.00;100401.47;6258827;28;20559;-68
2023/07/05 07:32:14;;;;;;;11.27;6.00;;;;;;;15.10;100.00;100414.00;6253449;28;20319;-68
2023/07/05 07:35:35;;;;;;;7.83;6.50;;;;;;;15.31;100.00;100400.63;6256433;28;20605;-68
2023/07/05 07:38:57;;;;;;;6.73;6.07;;;;;;;15.44;100.00;100394.66;6242876;28;20606;-69
2023/07/05 07:42:19;;;;;;;8.93;6.27;;;;;;;15.42;100.00;100405.66;6257534;28;20243;-68
2023/07/05 07:45:40;;;;;;;5.97;4.90;;;;;;;15.41;100.00;100404.00;6256668;28;20243;-68
2023/07/05 07:49:02;;;;;;;11.13;6.70;;;;;;;15.35;100.00;100402.00;6251504;28;20227;-69
2023/07/05 07:52:23;;;;;;;7.37;6.47;;;;;;;15.61;100.00;100398.97;6263651;28;20582;-68
2023/07/05 07:55:44;;;;;;;5.47;4.97;;;;;;;15.75;100.00;100393.59;6258009;28;20232;-68
2023/07/05 07:59:06;;;;;;;8.40;6.53;;;;;;;15.69;100.00;100404.34;6261116;28;20236;-69
2023/07/05 08:02:27;;;;;;;8.83;5.87;;;;;;;15.51;100.00;100398.34;6251930;28;20239;-68
2023/07/05 08:05:51;;;;;;;8.77;5.67;;;;;;;15.59;100.00;100396.44;6259668;28;20328;-69
2023/07/05 08:09:14;;;;;;;8.53;4.80;;;;;;;15.57;100.00;100409.34;6255763;28;20669;-68
2023/07/05 08:12:35;;;;;;;7.67;5.20;;;;;;;15.64;100.00;100410.34;6247838;28;20254;-68
2023/07/05 08:15:57;;;;;;;6.40;5.43;;;;;;;15.66;100.00;100408.28;6251495;28;20251;-68
2023/07/05 08:19:20;;;;;;;5.87;5.23;;;;;;;15.93;100.00;100407.75;6251959;28;20243;-69
2023/07/05 08:22:41;;;;;;;5.90;5.30;;;;;;;16.13;100.00;100405.34;6258683;28;20247;-69
2023/07/05 08:26:02;;;;;;;7.63;5.07;;;;;;;16.25;100.00;100405.78;6258703;28;20809;-68
2023/07/05 08:29:23;;;;;;;7.73;6.00;;;;;;;16.34;100.00;100405.50;6262234;28;20218;-68
2023/07/05 08:32:46;;;;;;;6.60;5.40;;;;;;;16.44;100.00;100405.22;6261330;28;20751;-69
2023/07/05 08:36:11;;;;;;;6.13;4.93;;;;;;;16.82;100.00;100382.38;6257762;28;20220;-67
2023/07/05 08:39:32;;;;;;;4.83;4.07;;;;;;;17.30;100.00;100397.25;6253321;28;20251;-69
2023/07/05 08:43:02;;;;;;;6.00;4.57;;;;;;;17.47;100.00;100390.53;6253990;28;20318;-68
2023/07/05 08:46:27;;;;;;;6.05;5.28;;;;;;;17.36;100.00;100385.59;6258670;28;20231;-69
2023/07/05 08:49:55;;;;;;;5.00;4.47;;;;;;;17.69;100.00;100386.81;6256937;28;20351;-69
2023/07/05 08:53:20;;;;;;;4.60;4.20;;;;;;;17.82;100.00;100389.69;6259179;28;20259;-68
2023/07/05 08:56:44;;;;;;;6.40;5.72;;;;;;;17.70;100.00;100390.41;6254270;28;20231;-69
2023/07/05 09:00:13;;;;;;;5.07;4.43;;;;;;;17.79;100.00;100391.97;6254184;28;20605;-69
2023/07/05 09:03:34;;;;;;;5.23;4.43;;;;;;;17.85;100.00;100393.91;6258273;28;20223;-70
2023/07/05 09:07:05;;;;;;;4.72;3.78;;;;;;;18.16;100.00;100388.97;6264685;28;20235;-70
2023/07/05 09:10:34;;;;;;;4.03;3.70;;;;;;;18.52;99.93;100397.06;6261195;28;20231;-69
2023/07/05 09:14:08;;;;;;;4.20;3.90;;;;;;;18.07;97.37;100404.63;6258398;28;20539;-68
2023/07/05 09:17:35;;;;;;;4.10;3.80;;;;;;;17.64;96.11;100407.53;6252128;28;20224;-69
2023/07/05 09:21:12;;;;;;;4.33;3.17;;;;;;;17.99;95.01;100417.53;6261283;28;20312;-69
2023/07/05 09:24:38;;;;;;;2.97;2.63;;;;;;;17.74;93.43;100425.28;6257908;28;20227;-68
2023/07/05 09:28:07;;;;;;;3.30;3.00;;;;;;;17.85;91.51;100435.69;6251363;28;20319;-70
2023/07/05 09:31:29;;;;;;;2.47;2.27;;;;;;;17.66;88.72;100443.63;6257225;28;20231;-69
2023/07/05 09:34:55;;;;;;;2.77;2.57;;;;;;;17.62;87.41;100453.22;6255244;28;21203;-67
2023/07/05 09:38:23;;;;;;;3.37;1.87;;;;;;;17.96;85.32;100453.41;6250031;28;20227;-69
2023/07/05 09:41:49;;;;;;;2.60;2.17;;;;;;;18.40;82.81;100448.56;6257261;28;20224;-69
2023/07/05 09:45:13;;;;;;;3.53;2.30;;;;;;;18.42;80.95;100451.94;6249400;28;20497;-69
2023/07/05 09:48:42;;;;;;;2.85;2.65;;;;;;;18.29;79.09;100460.84;6242714;28;20563;-68
2023/07/05 09:52:03;;;;;;;1.70;1.60;;;;;;;18.14;76.35;100462.84;6257372;28;20555;-68
2023/07/05 09:55:25;;;;;;;2.53;2.33;;;;;;;18.30;73.76;100461.72;6254007;28;20232;-68
2023/07/05 09:58:48;;;;;;;2.73;1.93;;;;;;;18.49;71.10;100461.06;6254777;28;20613;-68
2023/07/05 10:02:19;;;;;;;2.42;2.22;;;;;;;18.82;68.89;100466.78;6263267;28;20239;-69
2023/07/05 10:05:52;;;;;;;2.95;1.90;;;;;;;19.38;67.84;100459.41;6236456;28;20256;-69
2023/07/05 10:09:16;;;;;;;2.08;1.92;;;;;;;18.55;67.60;100468.47;6248148;28;20236;-70
2023/07/05 10:12:39;;;;;;;2.60;1.63;;;;;;;18.31;68.14;100461.50;6247872;28;20287;-69
2023/07/05 10:16:02;;;;;;;3.88;2.67;;;;;;;18.38;67.75;100463.47;6249881;28;20224;-68
2023/07/05 10:19:29;;;;;;;1.88;1.67;;;;;;;18.73;66.14;100468.00;6254613;28;20236;-68
2023/07/05 10:22:58;;;;;;;2.92;2.08;;;;;;;18.74;65.24;100450.56;6251078;28;20227;-68
2023/07/05 10:26:20;;;;;;;3.60;2.08;;;;;;;18.67;65.00;100457.88;6242568;28;20227;-69
2023/07/05 10:29:41;;;;;;;2.38;1.92;;;;;;;18.67;64.73;100466.88;6248279;28;20239;-70
2023/07/05 10:33:17;;;;;;;1.48;1.38;;;;;;;19.04;64.03;100443.81;6253974;28;20530;-68
2023/07/05 10:36:45;;;;;;;3.65;1.98;;;;;;;19.73;63.28;100437.19;6255017;28;20228;-68
2023/07/05 10:40:09;;;;;;;2.25;1.77;;;;;;;18.92;63.24;100443.53;6258269;28;20671;-66
2023/07/05 10:43:33;;;;;;;3.10;1.58;;;;;;;19.13;63.79;100446.19;6252890;28;20227;-69
2023/07/05 10:46:56;;;;;;;3.10;1.92;;;;;;;18.86;62.55;100465.34;6255195;28;20314;-69
2023/07/05 10:50:20;;;;;;;7.78;2.45;;;;;;;18.97;62.10;100434.75;6249805;28;20236;-68
2023/07/05 10:53:44;;;;;;;2.33;1.98;;;;;;;18.74;62.82;100475.13;6251506;28;20240;-68
2023/07/05 10:57:14;;;;;;;4.35;1.60;;;;;;;18.73;62.75;100463.34;6258130;28;20311;-69
2023/07/05 11:00:39;;;;;;;3.92;2.22;;;;;;;18.71;62.96;100462.72;6225956;28;20645;-68
2023/07/05 11:04:06;;;;;;;3.53;1.98;;;;;;;19.14;62.79;100467.03;6260217;28;20220;-69
2023/07/05 11:07:32;;;;;;;3.35;1.98;;;;;;;18.93;61.90;100477.16;6257491;28;20232;-69
2023/07/05 11:10:56;;;;;;;1.92;1.00;;;;;;;18.88;61.80;100466.84;6263889;28;20381;-70
2023/07/05 11:14:17;;;;;;;4.20;2.17;;;;;;;18.93;61.81;100478.03;6261597;28;20290;-68
2023/07/05 11:17:39;;;;;;;5.55;3.33;;;;;;;18.74;61.28;100497.84;6255757;28;20899;-69
2023/07/05 11:21:00;;;;;;;3.38;2.95;;;;;;;19.11;60.69;100489.28;6259958;28;20228;-69
2023/07/05 11:24:53;;;;;;;3.88;2.10;;;;;;;19.18;58.66;100502.97;6262015;28;20537;-68
2023/07/05 11:28:37;;;;;;;6.05;1.50;;;;;;;19.43;58.74;100496.00;6255099;28;20315;-70
2023/07/05 11:32:01;;;;;;;2.20;1.10;;;;;;;19.45;58.05;100499.38;6255794;28;20660;-70
2023/07/05 11:35:42;;;;;;;2.17;1.05;;;;;;;19.71;57.62;100496.75;6261439;28;20252;-69
2023/07/05 11:39:06;;;;;;;2.22;1.45;;;;;;;18.83;58.24;100501.25;6262302;28;20231;-68
2023/07/05 11:42:39;;;;;;;1.77;1.15;;;;;;;19.23;58.43;100503.22;6263342;28;20223;-69
2023/07/05 11:46:01;;;;;;;2.92;1.33;;;;;;;19.63;58.12;100499.66;6257254;28;20231;-68
2023/07/05 11:49:34;;;;;;;5.25;1.40;;;;;;;18.90;59.01;100507.63;6261802;28;20292;-68
2023/07/05 11:53:00;;;;;;;4.28;1.50;;;;;;;18.51;59.51;100497.22;6258500;28;20310;-68
2023/07/05 11:56:24;;;;;;;3.35;1.02;;;;;;;18.49;59.78;100518.41;6261183;28;20231;-69
2023/07/05 11:59:56;;;;;;;1.83;1.40;;;;;;;18.40;60.08;100518.72;6259228;28;20589;-69
2023/07/05 12:03:21;;;;;;;4.15;3.50;;;;;;;18.52;60.48;100517.19;6257348;28;21767;-70
2023/07/05 12:06:44;;;;;;;1.67;1.58;;;;;;;19.17;59.64;100512.22;6259384;28;20338;-68
2023/07/05 12:10:08;;;;;;;3.72;2.13;;;;;;;19.69;58.43;100512.53;6262692;28;20240;-69
2023/07/05 12:13:32;;;;;;;2.63;2.45;;;;;;;19.38;57.53;100514.06;6263169;28;20247;-69
2023/07/05 12:16:54;;;;;;;1.70;0.98;;;;;;;19.11;58.22;100518.47;6256692;28;20319;-68
2023/07/05 12:20:28;;;;;;;1.30;1.20;;;;;;;18.81;59.07;100517.88;6259881;28;20581;-68
2023/07/05 12:23:54;;;;;;;3.05;1.83;;;;;;;18.67;58.51;100535.16;6260288;28;20227;-70
2023/07/05 12:27:22;;;;;;;5.00;1.33;;;;;;;18.43;59.30;100521.88;6260438;28;20890;-69
2023/07/05 12:30:44;;;;;;;5.43;1.63;;;;;;;18.65;59.37;100534.50;6254682;28;20260;-69
2023/07/05 12:34:05;;;;;;;1.25;1.15;;;;;;;18.54;59.42;100597.00;6263224;28;20641;-68
2023/07/05 12:37:33;;;;;;;3.05;1.33;;;;;;;18.80;59.29;100526.22;6258111;28;20563;-69
2023/07/05 12:40:55;;;;;;;6.78;1.40;;;;;;;19.03;58.82;100538.63;6261730;28;20215;-68
2023/07/05 12:44:23;;;;;;;1.42;1.33;;;;;;;18.99;58.83;100531.00;6259529;28;20223;-69
2023/07/05 12:47:44;;;;;;;1.50;1.40;;;;;;;18.73;59.29;100519.88;6263479;28;20859;-68
2023/07/05 12:51:07;;;;;;;4.35;1.67;;;;;;;18.54;59.74;100509.63;6254425;28;20243;-69
2023/07/05 12:54:29;;;;;;;1.25;1.15;;;;;;;18.25;60.67;100532.44;6245524;28;20487;-69
2023/07/05 12:57:52;;;;;;;1.48;1.35;;;;;;;18.08;61.34;100547.34;6250533;28;20259;-69
2023/07/05 13:01:13;;;;;;;3.63;1.65;;;;;;;17.94;62.34;100545.50;6238649;28;20322;-68
2023/07/05 13:04:37;;;;;;;1.52;1.42;;;;;;;17.90;63.20;100522.38;6263959;28;20893;-69
2023/07/05 13:08:02;;;;;;;2.17;1.63;;;;;;;17.60;63.85;100546.13;6241094;28;20235;-69
2023/07/05 13:11:26;;;;;;;3.47;1.30;;;;;;;17.62;65.01;100598.56;6268803;28;20223;-69
2023/07/05 13:14:58;;;;;;;2.17;1.40;;;;;;;17.38;66.57;100569.69;6258520;28;20410;-69
2023/07/05 13:18:28;;;;;;;2.67;1.50;;;;;;;17.41;66.50;100563.88;6255184;28;20248;-70
2023/07/05 13:21:50;;;;;;;4.43;1.33;;;;;;;17.60;65.93;100586.16;6253678;28;20501;-69
2023/07/05 13:25:34;;;;;;;2.35;1.60;;;;;;;18.01;65.08;100560.91;6255053;28;20236;-68
2023/07/05 13:28:58;;;;;;;3.10;1.53;;;;;;;17.93;65.81;100550.13;6269028;28;20228;-69
2023/07/05 13:32:27;;;;;;;2.25;1.30;;;;;;;17.97;65.35;100567.78;6256558;28;22059;-68
2023/07/05 13:35:49;;;;;;;3.33;1.63;;;;;;;17.77;66.39;100571.31;6250268;28;20234;-70
2023/07/05 13:39:11;;;;;;;2.97;1.33;;;;;;;17.96;66.59;100544.25;6260721;28;20318;-70
2023/07/05 13:42:31;;;;;;;4.25;1.73;;;;;;;17.57;67.38;100554.66;6254755;28;20510;-69
2023/07/05 13:45:53;;;;;;;4.57;2.43;;;;;;;17.33;67.75;100607.56;6248459;28;20239;-68
2023/07/05 13:49:15;;;;;;;3.63;1.30;;;;;;;17.36;68.26;100570.88;6255508;28;20227;-69
2023/07/05 13:52:36;;;;;;;1.40;1.30;;;;;;;17.31;68.74;100560.53;6256139;28;20243;-68
2023/07/05 13:55:57;;;;;;;4.83;1.20;;;;;;;17.34;69.20;100565.63;6248523;28;20514;-69
2023/07/05 13:59:20;;;;;;;1.43;1.13;;;;;;;17.31;68.76;100559.72;6251417;28;20229;-68
2023/07/05 14:02:42;;;;;;;1.67;1.03;;;;;;;17.52;68.49;100548.94;6251299;28;20235;-69
2023/07/05 14:06:04;;;;;;;2.73;1.60;;;;;;;17.44;68.15;100570.78;6255181;28;20531;-69
2023/07/05 14:09:25;;;;;;;2.07;1.47;;;;;;;17.45;67.90;100594.31;6249068;28;20617;-68
2023/07/05 14:12:45;;;;;;;1.47;1.30;;;;;;;17.59;67.81;100552.59;6247697;28;20513;-68
2023/07/05 14:16:11;;;;;;;4.43;1.50;;;;;;;17.58;67.56;100552.78;6242759;28;20255;-68
2023/07/05 14:19:33;;;;;;;1.70;1.50;;;;;;;17.52;67.55;100554.41;6239980;28;20231;-69
2023/07/05 14:22:54;;;;;;;1.63;1.20;;;;;;;17.47;68.04;100575.88;6239698;28;20227;-68
2023/07/05 14:26:15;;;;;;;2.93;1.00;;;;;;;17.55;68.18;100567.63;6245502;28;20317;-68
2023/07/05 14:29:37;;;;;;;6.03;1.40;;;;;;;17.58;68.12;100576.28;6241542;28;20243;-69
2023/07/05 14:32:58;;;;;;;3.17;1.43;;;;;;;17.54;67.45;100568.69;6241145;28;20231;-68
2023/07/05 14:36:20;;;;;;;2.40;1.50;;;;;;;17.61;66.93;100577.78;6246622;28;20231;-68
2023/07/05 14:39:42;;;;;;;2.90;0.95;;;;;;;17.58;66.05;100598.09;6245529;28;20236;-68
2023/07/05 14:43:04;;;;;;;2.23;1.30;;;;;;;17.75;65.45;100589.72;6238568;28;20784;-68
2023/07/05 14:46:27;;;;;;;8.17;1.30;;;;;;;17.70;65.33;100581.25;6239536;28;20231;-68
2023/07/05 14:49:50;;;;;;;5.03;1.43;;;;;;;17.75;65.40;100589.72;6255517;28;20235;-69
2023/07/05 14:53:19;;;;;;;8.80;2.10;;;;;;;17.74;65.20;100616.16;6260827;28;20236;-68
2023/07/05 14:56:44;;;;;;;1.27;1.17;;;;;;;17.67;64.90;100600.75;6254917;28;20239;-68
2023/07/05 15:00:07;;;;;;;4.57;1.20;;;;;;;17.57;64.84;100611.91;6248168;28;20263;-67
2023/07/05 15:03:31;;;;;;;4.17;1.90;;;;;;;17.60;64.63;100622.47;6232959;28;20537;-68
2023/07/05 15:06:51;;;;;;;4.43;1.30;;;;;;;17.74;64.48;100602.50;6241468;28;20505;-68
2023/07/05 15:10:15;;;;;;;1.90;1.00;;;;;;;17.68;64.77;100602.41;6259633;28;20263;-68
2023/07/05 15:13:42;;;;;;;5.87;2.03;;;;;;;17.79;64.76;100612.88;6252958;28;20228;-70
2023/07/05 15:17:05;;;;;;;1.67;1.37;;;;;;;17.70;64.70;100600.34;6253756;28;20220;-69
2023/07/05 15:20:26;;;;;;;4.27;2.20;;;;;;;17.70;64.23;100603.06;6257786;28;20255;-69
2023/07/05 15:23:49;;;;;;;1.43;1.03;;;;;;;17.77;63.91;100620.38;6222396;28;20241;-69
2023/07/05 15:27:12;;;;;;;3.97;1.08;;;;;;;17.86;63.92;100608.31;6251739;28;20232;-68
2023/07/05 15:30:33;;;;;;;1.63;1.00;;;;;;;17.89;62.85;100618.88;6253881;28;20231;-68
2023/07/05 15:33:54;;;;;;;1.83;1.23;;;;;;;17.84;62.28;100619.44;6255783;28;20228;-67
2023/07/05 15:37:15;;;;;;;2.70;1.70;;;;;;;17.88;61.99;100608.97;6250809;28;20232;-69
2023/07/05 15:40:36;;;;;;;8.23;1.47;;;;;;;17.81;61.97;100602.59;6254494;28;20232;-69
2023/07/05 15:43:58;;;;;;;2.03;1.10;;;;;;;18.05;62.01;100585.91;6232207;28;20232;-71
2023/07/05 15:47:20;;;;;;;2.70;1.25;;;;;;;17.92;61.73;100611.13;6253135;28;20331;-68